createdAt,value
2018-09-28T00:02:48.819Z,70.93
2018-09-28T00:05:52.326Z,71.00
2018-09-28T00:08:55.864Z,70.92
2018-09-28T00:11:59.330Z,70.74
2018-09-28T00:15:02.809Z,71.68
2018-09-28T00:18:06.489Z,72.14
2018-09-28T00:21:10.061Z,72.37
2018-09-28T00:24:13.542Z,72.09
2018-09-28T00:27:17.018Z,71.97
2018-09-28T00:30:20.513Z,71.92
2018-09-28T00:33:24.098Z,71.95
2018-09-28T00:36:27.622Z,71.95
2018-09-28T00:39:31.471Z,71.33
2018-09-28T00:42:34.970Z,71.73
2018-09-28T00:45:38.310Z,71.75
2018-09-28T00:48:41.774Z,71.69
2018-09-28T00:51:45.332Z,71.46
2018-09-28T00:54:48.902Z,71.45
2018-09-28T00:57:52.349Z,71.66
2018-09-28T01:00:55.982Z,71.70
2018-09-28T01:03:59.627Z,71.88
2018-09-28T01:07:03.056Z,72.13
2018-09-28T01:10:06.650Z,72.25
2018-09-28T01:13:10.081Z,72.32
2018-09-28T01:16:13.587Z,72.25
2018-09-28T01:19:17.074Z,73.38
2018-09-28T01:22:20.646Z,73.06
2018-09-28T01:25:24.107Z,73.33
2018-09-28T01:28:27.580Z,73.24
2018-09-28T01:31:31.431Z,72.74
2018-09-28T01:34:34.877Z,73.10
2018-09-28T01:37:38.361Z,73.26
2018-09-28T01:40:41.897Z,73.30
2018-09-28T01:43:45.558Z,73.37
2018-09-28T01:46:49.068Z,74.11
2018-09-28T01:49:52.664Z,74.00
2018-09-28T01:52:56.166Z,73.96
2018-09-28T01:55:59.628Z,73.97
2018-09-28T01:59:03.152Z,74.19
2018-09-28T02:02:06.681Z,73.66
2018-09-28T02:05:10.140Z,73.49
2018-09-28T02:08:13.671Z,73.68
2018-09-28T02:11:17.174Z,73.65
2018-09-28T02:14:20.694Z,74.08
2018-09-28T02:17:24.143Z,74.14
2018-09-28T02:20:27.623Z,74.15
2018-09-28T02:23:31.032Z,74.80
2018-09-28T02:26:34.457Z,75.14
2018-09-28T02:29:37.947Z,75.11
2018-09-28T02:32:41.448Z,74.71
2018-09-28T02:35:44.837Z,75.40
2018-09-28T02:38:48.305Z,75.41
2018-09-28T02:41:51.741Z,75.14
2018-09-28T02:44:55.341Z,74.96
2018-09-28T02:47:58.799Z,74.97
2018-09-28T02:51:02.330Z,74.77
2018-09-28T02:54:05.817Z,74.66
2018-09-28T02:57:09.371Z,74.00
2018-09-28T03:00:12.869Z,75.22
2018-09-28T03:03:16.583Z,75.78
2018-09-28T03:06:20.130Z,75.74
2018-09-28T03:09:23.637Z,75.52
2018-09-28T03:12:27.134Z,75.32
2018-09-28T03:15:30.561Z,75.74
2018-09-28T03:18:33.972Z,75.65
2018-09-28T03:21:37.399Z,75.80
2018-09-28T03:24:40.896Z,75.82
2018-09-28T03:27:44.390Z,75.99
2018-09-28T03:30:47.787Z,76.30
2018-09-28T03:33:51.179Z,76.16
2018-09-28T03:36:54.670Z,76.23
2018-09-28T03:39:58.115Z,76.53
2018-09-28T03:43:01.697Z,76.66
2018-09-28T03:46:05.103Z,76.47
2018-09-28T03:49:08.479Z,76.57
2018-09-28T03:52:11.899Z,76.56
2018-09-28T03:55:15.291Z,76.76
2018-09-28T03:58:18.800Z,77.08
2018-09-28T04:01:22.174Z,77.11
2018-09-28T04:04:25.574Z,77.10
2018-09-28T04:07:28.985Z,77.05
2018-09-28T04:10:32.394Z,77.49
2018-09-28T04:13:35.773Z,78.15
2018-09-28T04:16:39.188Z,78.26
2018-09-28T04:19:42.599Z,78.55
2018-09-28T04:22:46.012Z,78.81
2018-09-28T04:25:49.430Z,79.06
2018-09-28T04:28:53.219Z,78.92
2018-09-28T04:31:56.618Z,78.23
2018-09-28T04:35:00.008Z,77.87
2018-09-28T04:38:03.576Z,78.02
2018-09-28T04:41:07.040Z,77.66
2018-09-28T04:44:10.820Z,77.75
2018-09-28T04:47:14.218Z,78.03
2018-09-28T04:50:17.711Z,78.74
2018-09-28T04:53:21.972Z,78.54
2018-09-28T04:56:25.585Z,78.18
2018-09-28T04:59:29.253Z,78.56
2018-09-28T05:02:32.853Z,77.81
2018-09-28T05:05:36.396Z,78.12
2018-09-28T05:08:39.959Z,78.89
2018-09-28T05:11:43.505Z,78.52
2018-09-28T05:14:47.276Z,78.66
2018-09-28T05:17:50.829Z,78.17
2018-09-28T05:20:55.354Z,78.59
2018-09-28T05:23:58.791Z,78.09
2018-09-28T05:27:02.513Z,78.27
2018-09-28T05:30:06.103Z,77.86
2018-09-28T05:33:09.842Z,77.74
2018-09-28T05:36:13.474Z,77.85
2018-09-28T05:39:17.030Z,78.11
2018-09-28T05:42:20.548Z,78.19
2018-09-28T05:45:24.051Z,78.26
2018-09-28T05:48:27.546Z,78.14
2018-09-28T05:51:31.213Z,78.03
2018-09-28T05:54:34.636Z,77.96
2018-09-28T05:57:38.160Z,77.76
2018-09-28T06:00:46.952Z,77.75
2018-09-28T06:03:56.912Z,78.16
2018-09-28T06:07:00.497Z,78.13
2018-09-28T06:10:04.097Z,77.68
2018-09-28T06:13:07.951Z,77.98
2018-09-28T06:16:11.557Z,77.78
2018-09-28T06:19:15.258Z,78.18
2018-09-28T06:22:19.897Z,77.71
2018-09-28T06:25:23.456Z,77.34
2018-09-28T06:28:27.049Z,77.74
2018-09-28T06:31:30.481Z,77.55
2018-09-28T06:34:34.036Z,77.76
2018-09-28T06:37:37.518Z,77.54
2018-09-28T06:40:41.005Z,77.38
2018-09-28T06:43:44.610Z,77.57
2018-09-28T06:46:48.109Z,77.32
2018-09-28T06:49:51.662Z,77.36
2018-09-28T06:52:55.119Z,77.41
2018-09-28T06:55:58.638Z,77.35
2018-09-28T06:59:02.209Z,76.99
2018-09-28T07:02:05.766Z,77.36
2018-09-28T07:05:09.292Z,77.66
2018-09-28T07:08:12.906Z,76.41
2018-09-28T07:11:16.656Z,76.23
2018-09-28T07:14:20.169Z,75.86
2018-09-28T07:17:23.619Z,75.69
2018-09-28T07:20:27.177Z,75.17
2018-09-28T07:23:30.660Z,76.08
2018-09-28T07:26:34.210Z,75.73
2018-09-28T07:29:37.634Z,75.56
2018-09-28T07:32:41.051Z,76.06
2018-09-28T07:35:44.626Z,76.40
2018-09-28T07:38:48.223Z,75.94
2018-09-28T07:41:51.757Z,75.33
2018-09-28T07:44:55.242Z,74.33
2018-09-28T07:47:58.701Z,73.89
2018-09-28T07:51:02.197Z,73.73
2018-09-28T07:54:05.684Z,74.04
2018-09-28T07:57:09.210Z,74.62
2018-09-28T08:00:12.700Z,73.92
2018-09-28T08:03:16.173Z,73.12
2018-09-28T08:06:19.621Z,72.82
2018-09-28T08:09:23.190Z,72.66
2018-09-28T08:12:26.724Z,72.13
2018-09-28T08:15:30.172Z,71.07
2018-09-28T08:18:33.735Z,71.28
2018-09-28T08:21:37.441Z,69.86
2018-09-28T08:24:41.216Z,70.17
2018-09-28T08:27:44.652Z,67.80
2018-09-28T08:30:48.187Z,67.68
2018-09-28T08:33:51.824Z,67.48
2018-09-28T08:36:55.420Z,67.19
2018-09-28T08:39:58.856Z,66.20
2018-09-28T08:43:02.366Z,65.98
2018-09-28T08:46:05.905Z,66.54
2018-09-28T08:49:09.513Z,66.69
2018-09-28T08:52:14.034Z,66.22
2018-09-28T08:55:18.908Z,66.11
2018-09-28T08:58:22.407Z,66.03
2018-09-28T09:01:26.035Z,65.04
2018-09-28T09:04:29.902Z,64.55
2018-09-28T09:07:34.588Z,64.09
2018-09-28T09:10:38.056Z,63.79
2018-09-28T09:13:41.643Z,63.85
2018-09-28T09:16:45.062Z,63.31
2018-09-28T09:19:48.588Z,63.03
2018-09-28T09:22:52.058Z,61.62
2018-09-28T09:25:55.440Z,61.64
2018-09-28T09:28:58.837Z,61.26
2018-09-28T09:32:02.395Z,60.45
2018-09-28T09:35:05.998Z,59.66
2018-09-28T09:38:09.328Z,59.62
2018-09-28T09:41:14.659Z,59.70
2018-09-28T09:44:18.082Z,59.79
2018-09-28T09:47:21.667Z,57.08
2018-09-28T09:50:25.093Z,56.96
2018-09-28T09:53:28.587Z,57.30
2018-09-28T09:56:32.008Z,57.20
2018-09-28T09:59:35.385Z,55.89
2018-09-28T10:02:44.315Z,56.62
2018-09-28T10:05:48.063Z,55.46
2018-09-28T10:08:52.051Z,55.58
2018-09-28T10:11:55.435Z,54.57
2018-09-28T10:14:58.855Z,54.27
2018-09-28T10:18:02.237Z,54.95
2018-09-28T10:21:06.055Z,53.92
2018-09-28T10:24:09.469Z,54.15
2018-09-28T10:27:12.888Z,53.80
2018-09-28T10:30:16.254Z,53.01
2018-09-28T10:33:19.858Z,52.42
2018-09-28T10:36:24.317Z,51.86
2018-09-28T10:39:27.728Z,51.58
2018-09-28T10:42:31.083Z,51.46
2018-09-28T10:45:34.598Z,51.35
2018-09-28T10:48:38.078Z,50.83
2018-09-28T10:51:41.644Z,50.37
2018-09-28T10:54:45.252Z,50.42
2018-09-28T10:57:49.104Z,49.30
2018-09-28T11:00:52.584Z,48.96
2018-09-28T11:03:56.023Z,48.73
2018-09-28T11:07:00.063Z,48.56
2018-09-28T11:10:03.623Z,47.66
2018-09-28T11:13:08.171Z,47.39
2018-09-28T11:16:12.322Z,47.25
2018-09-28T11:19:15.882Z,46.70
2018-09-28T11:22:19.652Z,46.22
2018-09-28T11:25:24.264Z,45.76
2018-09-28T11:28:28.016Z,45.76
2018-09-28T11:31:31.510Z,45.20
2018-09-28T11:34:35.047Z,44.86
2018-09-28T11:37:38.752Z,44.28
2018-09-28T11:40:42.201Z,43.81
2018-09-28T11:43:45.785Z,43.65
2018-09-28T11:46:50.093Z,43.58
2018-09-28T11:49:53.595Z,43.23
2018-09-28T11:52:57.142Z,42.92
2018-09-28T11:56:00.637Z,40.57
2018-09-28T11:59:04.252Z,40.66
2018-09-28T12:02:08.581Z,39.61
2018-09-28T12:05:12.229Z,40.95
2018-09-28T12:08:15.798Z,39.54
2018-09-28T12:11:19.396Z,38.47
2018-09-28T12:14:22.931Z,38.92
2018-09-28T12:17:26.441Z,38.23
2018-09-28T12:20:29.871Z,37.93
2018-09-28T12:23:33.309Z,38.36
2018-09-28T12:26:36.745Z,37.98
2018-09-28T12:29:40.478Z,37.21
2018-09-28T12:32:43.956Z,35.76
2018-09-28T12:35:47.324Z,36.44
2018-09-28T12:38:50.753Z,35.31
2018-09-28T12:41:54.159Z,33.98
2018-09-28T12:44:57.667Z,35.28
2018-09-28T12:48:01.114Z,36.21
2018-09-28T12:51:04.555Z,35.91
2018-09-28T12:54:07.981Z,35.65
2018-09-28T12:57:11.472Z,35.62
2018-09-28T13:00:14.914Z,35.74
2018-09-28T13:03:18.375Z,36.13
2018-09-28T13:06:21.861Z,36.38
2018-09-28T13:09:25.272Z,36.42
2018-09-28T13:12:28.696Z,37.06
2018-09-28T13:15:32.175Z,37.44
2018-09-28T13:18:35.721Z,37.53
2018-09-28T13:21:39.228Z,38.08
2018-09-28T13:24:42.819Z,38.27
2018-09-28T13:27:46.258Z,37.60
2018-09-28T13:30:49.880Z,37.21
2018-09-28T13:33:53.267Z,36.90
2018-09-28T13:36:56.706Z,36.66
2018-09-28T13:40:00.144Z,36.48
2018-09-28T13:43:03.615Z,35.33
2018-09-28T13:46:07.450Z,35.16
2018-09-28T13:49:10.919Z,36.20
2018-09-28T13:52:14.453Z,36.05
2018-09-28T13:55:17.800Z,35.33
2018-09-28T13:58:21.206Z,35.20
2018-09-28T14:01:24.626Z,34.51
2018-09-28T14:04:28.235Z,34.25
2018-09-28T14:07:31.513Z,34.22
2018-09-28T14:10:34.919Z,34.58
2018-09-28T14:13:38.368Z,34.20
2018-09-28T14:16:41.827Z,33.30
2018-09-28T14:19:45.191Z,32.70
2018-09-28T14:22:48.636Z,32.89
2018-09-28T14:25:52.042Z,31.47
2018-09-28T14:28:55.461Z,31.63
2018-09-28T14:31:58.790Z,30.74
2018-09-28T14:35:02.386Z,29.97
2018-09-28T14:38:06.922Z,30.17
2018-09-28T14:41:10.376Z,29.63
2018-09-28T14:44:13.772Z,29.84
2018-09-28T14:47:17.192Z,29.71
2018-09-28T14:50:20.758Z,29.82
2018-09-28T14:53:24.241Z,29.57
2018-09-28T14:56:27.759Z,30.17
2018-09-28T14:59:31.130Z,30.20
2018-09-28T15:02:34.652Z,30.73
2018-09-28T15:05:38.141Z,30.99
2018-09-28T15:08:41.695Z,31.62
2018-09-28T15:11:45.307Z,31.45
2018-09-28T15:14:49.123Z,31.19
2018-09-28T15:17:52.900Z,30.96
2018-09-28T15:20:56.631Z,30.35
2018-09-28T15:24:00.375Z,31.37
2018-09-28T15:27:03.963Z,32.41
2018-09-28T15:30:08.481Z,33.67
2018-09-28T15:36:49.855Z,36.48
2018-09-28T15:39:53.517Z,38.25
2018-09-28T15:42:57.115Z,39.39
2018-09-28T15:46:00.727Z,40.52
2018-09-28T15:49:04.149Z,41.46
2018-09-28T15:52:07.641Z,42.55
2018-09-28T15:55:11.156Z,43.77
2018-09-28T15:58:14.827Z,45.24
2018-09-28T16:01:18.337Z,47.67
2018-09-28T16:04:21.851Z,50.38
2018-09-28T16:07:25.361Z,52.70
2018-09-28T16:10:28.735Z,52.87
2018-09-28T16:13:32.152Z,54.16
2018-09-28T16:16:35.563Z,54.77
2018-09-28T16:19:39.018Z,55.37
2018-09-28T16:22:42.448Z,55.99
2018-09-28T16:25:45.832Z,56.61
2018-09-28T16:28:49.321Z,57.14
2018-09-28T16:35:31.136Z,57.50
2018-09-28T16:38:34.709Z,57.98
2018-09-28T16:41:38.184Z,58.87
2018-09-28T16:44:41.798Z,59.64
2018-09-28T16:47:45.253Z,60.35
2018-09-28T16:50:48.675Z,60.87
2018-09-28T16:53:52.181Z,60.95
2018-09-28T16:56:55.866Z,61.01
2018-09-28T16:59:59.283Z,61.38
2018-09-28T17:03:02.711Z,61.70
2018-09-28T17:06:06.151Z,62.05
2018-09-28T17:09:10.445Z,62.33
2018-09-28T17:12:13.989Z,62.89
2018-09-28T17:15:17.445Z,63.46
2018-09-28T17:18:20.893Z,64.14
2018-09-28T17:21:24.566Z,64.36
2018-09-28T17:24:27.969Z,65.09
2018-09-28T17:27:31.384Z,65.45
2018-09-28T17:30:34.870Z,65.60
2018-09-28T17:33:38.290Z,65.93
2018-09-28T17:36:41.675Z,66.42
2018-09-28T17:39:45.058Z,67.32
2018-09-28T17:42:48.708Z,67.72
2018-09-28T17:45:52.280Z,69.24
2018-09-28T17:48:55.885Z,71.82
2018-09-28T17:51:59.388Z,74.17
2018-09-28T17:55:02.889Z,74.80
2018-09-28T17:58:06.545Z,75.71
2018-09-28T18:01:10.022Z,76.18
2018-09-28T18:04:13.533Z,76.94
2018-09-28T18:07:17.105Z,77.41
2018-09-28T18:10:20.608Z,76.01
2018-09-28T18:13:24.189Z,76.49
2018-09-28T18:16:27.713Z,76.11
2018-09-28T18:19:31.203Z,75.31
2018-09-28T18:22:35.758Z,75.85
2018-09-28T18:25:39.138Z,75.00
2018-09-28T18:28:42.724Z,74.27
2018-09-28T18:31:46.247Z,74.45
2018-09-28T18:34:49.734Z,73.75
2018-09-28T18:37:53.245Z,73.29
2018-09-28T18:40:56.764Z,73.00
2018-09-28T18:44:00.279Z,72.88
2018-09-28T18:47:03.765Z,71.98
2018-09-28T18:50:07.275Z,71.50
2018-09-28T18:53:10.762Z,70.73
2018-09-28T18:56:14.391Z,70.42
2018-09-28T18:59:17.954Z,69.45
2018-09-28T19:02:21.365Z,69.25
2018-09-28T19:05:24.863Z,69.22
2018-09-28T19:08:28.389Z,69.01
2018-09-28T19:11:31.877Z,68.14
2018-09-28T19:14:35.378Z,67.72
2018-09-28T19:17:39.001Z,67.12
2018-09-28T19:20:42.591Z,66.84
2018-09-28T19:23:46.096Z,66.68
2018-09-28T19:26:49.620Z,66.28
2018-09-28T19:29:53.120Z,65.97
2018-09-28T19:32:57.011Z,65.47
2018-09-28T19:36:00.563Z,65.51
2018-09-28T19:39:04.759Z,65.43
2018-09-28T19:42:08.368Z,64.70
2018-09-28T19:45:11.845Z,64.73
2018-09-28T19:48:15.494Z,64.61
2018-09-28T19:51:18.986Z,64.07
2018-09-28T19:54:22.433Z,63.98
2018-09-28T19:57:26.040Z,63.61
2018-09-28T20:00:29.811Z,63.24
2018-09-28T20:03:33.356Z,62.61
2018-09-28T20:06:37.207Z,63.04
2018-09-28T20:09:40.675Z,62.92
2018-09-28T20:12:44.450Z,62.60
2018-09-28T20:15:48.248Z,62.42
2018-09-28T20:18:51.789Z,61.68
2018-09-28T20:21:55.260Z,61.62
2018-09-28T20:24:58.746Z,61.23
2018-09-28T20:28:02.325Z,61.03
2018-09-28T20:31:06.075Z,61.42
2018-09-28T20:34:09.587Z,60.43
2018-09-28T20:37:13.164Z,60.75
2018-09-28T20:40:16.673Z,60.36
2018-09-28T20:43:20.200Z,60.07
2018-09-28T20:46:23.791Z,59.95
2018-09-28T20:49:27.296Z,59.24
2018-09-28T20:52:30.866Z,59.12
2018-09-28T20:55:34.448Z,57.84
2018-09-28T20:58:37.952Z,57.52
2018-09-28T21:01:41.920Z,56.61
2018-09-28T21:04:45.425Z,56.32
2018-09-28T21:07:49.970Z,56.93
2018-09-28T21:10:53.382Z,57.35
2018-09-28T21:13:56.787Z,57.24
2018-09-28T21:17:00.232Z,56.74
2018-09-28T21:20:04.851Z,56.31
2018-09-28T21:23:08.369Z,56.39
2018-09-28T21:26:11.907Z,54.97
2018-09-28T21:29:15.305Z,54.81
2018-09-28T21:32:19.918Z,54.90
2018-09-28T21:35:23.497Z,53.98
2018-09-28T21:38:27.153Z,53.81
2018-09-28T21:41:30.557Z,53.71
2018-09-28T21:44:33.944Z,53.14
2018-09-28T21:47:37.349Z,53.45
2018-09-28T21:50:40.779Z,53.61
2018-09-28T21:53:44.128Z,52.83
2018-09-28T21:56:47.540Z,52.57
2018-09-28T21:59:50.973Z,52.82
2018-09-28T22:02:54.337Z,52.54
2018-09-28T22:05:57.746Z,53.23
2018-09-28T22:09:01.214Z,52.98
2018-09-28T22:12:05.561Z,52.90
2018-09-28T22:15:09.102Z,52.49
2018-09-28T22:18:12.463Z,52.03
2018-09-28T22:21:15.950Z,51.87
2018-09-28T22:24:19.368Z,51.95
2018-09-28T22:27:22.769Z,52.33
2018-09-28T22:30:26.174Z,52.09
2018-09-28T22:33:29.571Z,52.34
2018-09-28T22:36:32.961Z,52.41
2018-09-28T22:39:36.481Z,52.28
2018-09-28T22:42:39.867Z,52.43
2018-09-28T22:45:43.272Z,52.31
2018-09-28T22:48:46.682Z,52.51
2018-09-28T22:51:50.127Z,52.56
2018-09-28T22:54:53.467Z,51.64
2018-09-28T22:57:56.866Z,51.29
2018-09-28T23:01:00.268Z,50.99
2018-09-28T23:04:03.669Z,49.80
2018-09-28T23:07:08.530Z,49.13
2018-09-28T23:10:11.961Z,49.18
2018-09-28T23:13:15.329Z,49.19
2018-09-28T23:16:18.759Z,49.11
2018-09-28T23:19:22.097Z,48.84
2018-09-28T23:22:25.516Z,49.02
2018-09-28T23:25:29.000Z,48.08
2018-09-28T23:28:32.588Z,48.43
2018-09-28T23:31:36.147Z,48.61
2018-09-28T23:34:39.633Z,48.27
2018-09-28T23:37:43.143Z,47.81
2018-09-28T23:40:46.634Z,47.98
2018-09-28T23:43:50.116Z,48.09
2018-09-28T23:46:53.617Z,48.18
2018-09-28T23:49:57.145Z,46.79
2018-09-28T23:53:00.669Z,47.35
2018-09-28T23:56:04.195Z,47.10
2018-09-28T23:59:07.799Z,46.34
